Time;durP1;ratioP1;P1;durP2;ratioP2;P2;SDS_P1;SDS_P2;PMS_P1;PMS_P2;Temp;Humidity;BMP_temperature;BMP_pressure;BME280_temperature;BME280_humidity;BME280_pressure;Samples;Min_cycle;Max_cycle;Signal;HPM_P1;HPM_P2
2021/03/30 00:02:42;;;;;;;23.52;17.20;;;;;;;12.69;66.46;102147.03;4996761;28;20385;-80
2021/03/30 00:05:47;;;;;;;21.85;16.65;;;;;;;12.69;66.63;102153.25;4996553;28;20039;-80
2021/03/30 00:08:52;;;;;;;22.30;17.40;;;;;;;12.66;66.64;102136.47;4997403;28;20054;-78
2021/03/30 00:11:56;;;;;;;21.42;17.73;;;;;;;12.74;66.31;102142.19;4996207;28;20042;-81
2021/03/30 00:15:01;;;;;;;24.73;16.67;;;;;;;12.69;66.14;102141.66;4996381;28;20042;-74
2021/03/30 00:18:05;;;;;;;20.00;17.20;;;;;;;12.68;66.39;102139.91;4997144;28;20038;-74
2021/03/30 00:21:09;;;;;;;18.17;16.20;;;;;;;12.60;66.63;102139.56;4997074;28;20046;-75
2021/03/30 00:24:14;;;;;;;22.08;18.00;;;;;;;12.60;66.23;102139.56;4997299;28;20470;-74
2021/03/30 00:27:18;;;;;;;20.45;16.52;;;;;;;12.58;66.77;102134.28;5015481;28;20049;-75
2021/03/30 00:30:23;;;;;;;19.63;16.95;;;;;;;12.52;66.50;102125.75;5016284;28;20046;-79
2021/03/30 00:33:27;;;;;;;19.75;17.67;;;;;;;12.48;66.93;102132.31;5016833;28;20049;-74
2021/03/30 00:36:32;;;;;;;19.92;16.85;;;;;;;12.43;67.06;102138.00;5016751;28;20053;-73
2021/03/30 00:39:36;;;;;;;19.67;16.13;;;;;;;12.38;67.29;102124.84;5015317;28;20045;-80
2021/03/30 00:42:41;;;;;;;23.33;16.00;;;;;;;12.37;66.97;102128.50;5016376;28;20050;-75
2021/03/30 00:45:46;;;;;;;18.40;16.50;;;;;;;12.37;67.01;102125.81;5015438;28;20042;-75
2021/03/30 00:48:51;;;;;;;20.58;16.25;;;;;;;12.35;67.38;102127.75;5016181;28;20046;-81
2021/03/30 00:51:57;;;;;;;20.35;17.63;;;;;;;12.30;67.53;102135.28;5016134;28;20046;-79
2021/03/30 00:55:21;;;;;;;20.03;16.57;;;;;;;12.24;67.54;102124.94;5016840;28;20396;-82
2021/03/30 00:58:27;;;;;;;23.27;17.10;;;;;;;12.21;67.81;102130.50;5016822;28;20050;-75
2021/03/30 01:01:31;;;;;;;22.33;16.58;;;;;;;12.24;67.35;102122.22;5016123;28;20049;-75
2021/03/30 01:04:35;;;;;;;18.60;16.75;;;;;;;12.21;67.33;102114.34;5016172;28;20045;-74
2021/03/30 01:07:55;;;;;;;22.98;18.05;;;;;;;12.20;67.36;102114.44;4995879;28;20066;-81
2021/03/30 01:11:22;;;;;;;20.90;16.83;;;;;;;12.11;67.45;102110.53;4996228;28;20474;-75
2021/03/30 01:14:52;;;;;;;22.02;16.88;;;;;;;12.19;67.75;102113.59;4995870;28;20481;-80
2021/03/30 01:18:12;;;;;;;20.38;16.27;;;;;;;12.17;67.25;102118.19;5002521;28;20046;-74
2021/03/30 01:21:54;;;;;;;21.95;16.50;;;;;;;12.15;67.87;102109.38;4995231;28;20050;-80
2021/03/30 01:25:00;;;;;;;20.30;17.15;;;;;;;12.13;67.57;102107.72;4995880;28;20382;-76
2021/03/30 01:28:29;;;;;;;19.50;16.63;;;;;;;12.09;67.75;102109.78;4995886;28;20043;-78
2021/03/30 01:31:35;;;;;;;20.27;16.42;;;;;;;12.05;68.12;102107.38;4995790;28;20050;-73
2021/03/30 01:34:43;;;;;;;20.88;17.83;;;;;;;12.02;68.11;102103.09;4995768;28;20046;-76
2021/03/30 01:37:48;;;;;;;20.23;16.38;;;;;;;12.03;67.83;102109.31;4995682;28;20046;-75
2021/03/30 01:40:55;;;;;;;22.23;16.35;;;;;;;12.01;68.22;102106.72;4995291;28;20050;-76
2021/03/30 01:44:01;;;;;;;20.00;16.80;;;;;;;12.02;68.31;102097.69;4995575;28;20046;-75
2021/03/30 01:47:06;;;;;;;19.92;16.98;;;;;;;11.96;68.48;102103.47;4994699;28;20046;-82
2021/03/30 01:50:12;;;;;;;21.95;16.60;;;;;;;11.98;68.27;102106.06;4995001;28;20050;-79
2021/03/30 01:53:17;;;;;;;21.50;16.73;;;;;;;12.04;68.12;102109.22;4995639;28;20046;-76
2021/03/30 01:56:22;;;;;;;22.52;16.63;;;;;;;12.01;68.41;102098.66;4995405;28;20046;-75
2021/03/30 01:59:29;;;;;;;22.23;16.85;;;;;;;11.99;68.47;102099.72;4995461;28;20046;-75
2021/03/30 02:02:34;;;;;;;20.55;16.23;;;;;;;12.01;68.09;102095.09;5014150;28;20402;-81
2021/03/30 02:05:40;;;;;;;23.95;18.30;;;;;;;12.00;68.20;102099.59;5014417;28;20038;-75
2021/03/30 02:08:45;;;;;;;24.85;16.70;;;;;;;11.97;68.50;102101.66;5014730;28;20497;-75
2021/03/30 02:11:57;;;;;;;20.65;16.58;;;;;;;11.96;68.62;102103.47;4995061;28;20039;-76
2021/03/30 02:15:02;;;;;;;19.60;16.27;;;;;;;11.98;68.31;102100.66;4994845;28;20043;-76
2021/03/30 02:18:12;;;;;;;27.15;16.88;;;;;;;11.93;68.22;102100.97;4994886;28;20050;-74
2021/03/30 02:21:22;;;;;;;19.40;16.25;;;;;;;11.93;68.50;102100.97;4995848;28;20047;-78
2021/03/30 02:24:29;;;;;;;22.55;16.52;;;;;;;11.87;68.41;102103.22;5012610;28;20046;-78
2021/03/30 02:27:38;;;;;;;18.60;15.25;;;;;;;11.84;68.52;102106.09;5013798;28;20477;-75
2021/03/30 02:30:43;;;;;;;20.58;16.77;;;;;;;11.79;68.70;102101.03;5014666;28;20042;-75
2021/03/30 02:33:51;;;;;;;22.90;16.92;;;;;;;11.74;68.72;102097.78;5014402;28;20050;-82
2021/03/30 02:36:57;;;;;;;18.45;16.42;;;;;;;11.70;69.04;102090.88;5014823;28;20042;-80
2021/03/30 02:40:04;;;;;;;19.33;16.88;;;;;;;11.70;69.07;102093.56;5014258;28;20058;-74
2021/03/30 02:43:09;;;;;;;19.67;16.63;;;;;;;11.70;68.86;102082.81;5013198;28;20045;-79
2021/03/30 02:46:18;;;;;;;20.98;16.38;;;;;;;11.68;69.10;102090.09;5013828;28;20041;-75
2021/03/30 02:49:25;;;;;;;20.55;16.15;;;;;;;11.66;69.42;102083.91;5014329;28;20050;-81
2021/03/30 02:52:30;;;;;;;18.58;16.60;;;;;;;11.62;69.49;102085.09;5012959;28;20489;-77
2021/03/30 02:55:36;;;;;;;21.20;15.57;;;;;;;11.60;69.16;102087.84;5012726;28;20050;-74
2021/03/30 02:58:41;;;;;;;17.90;16.00;;;;;;;11.63;69.36;102084.09;5013472;28;20050;-76
2021/03/30 03:01:49;;;;;;;18.13;16.10;;;;;;;11.68;69.18;102090.09;5012712;28;20034;-76
2021/03/30 03:04:53;;;;;;;19.75;16.40;;;;;;;11.66;69.17;102090.16;5000394;28;20054;-78
2021/03/30 03:07:58;;;;;;;17.85;15.95;;;;;;;11.60;68.96;102092.41;5013245;28;20046;-75
2021/03/30 03:11:04;;;;;;;21.65;16.73;;;;;;;11.58;69.56;102092.47;5013212;28;20503;-76
2021/03/30 03:14:10;;;;;;;20.17;15.60;;;;;;;11.64;69.07;102093.91;4993565;28;20046;-75
2021/03/30 03:17:14;;;;;;;19.80;16.33;;;;;;;11.67;69.00;102085.66;4993009;28;20513;-75
2021/03/30 03:20:20;;;;;;;22.70;16.98;;;;;;;11.67;69.12;102091.03;4993637;28;20409;-75
2021/03/30 03:23:25;;;;;;;21.75;15.57;;;;;;;11.70;69.12;102086.34;4996058;28;20450;-78
2021/03/30 03:26:31;;;;;;;21.88;16.48;;;;;;;11.62;68.47;102088.66;5013196;28;20042;-75
2021/03/30 03:29:36;;;;;;;20.75;16.00;;;;;;;11.58;69.14;102087.09;5013199;28;20042;-75
2021/03/30 03:32:41;;;;;;;18.98;15.68;;;;;;;11.53;69.10;102083.84;5013136;28;20046;-74
2021/03/30 03:36:09;;;;;;;18.73;15.63;;;;;;;11.49;69.09;102087.69;5000995;28;20050;-75
2021/03/30 03:39:19;;;;;;;18.42;15.55;;;;;;;11.44;69.08;102086.25;5015899;28;20050;-76
2021/03/30 03:42:23;;;;;;;20.08;15.07;;;;;;;11.52;69.07;102082.13;5016781;28;20046;-78
2021/03/30 03:45:27;;;;;;;20.05;15.35;;;;;;;11.54;68.54;102095.47;4997178;28;20042;-74
2021/03/30 03:48:32;;;;;;;20.15;15.32;;;;;;;11.60;68.69;102089.72;5008050;28;20042;-75
2021/03/30 03:51:41;;;;;;;16.98;15.13;;;;;;;11.52;68.21;102100.94;5016234;28;20061;-73
2021/03/30 03:54:47;;;;;;;20.13;14.95;;;;;;;11.50;69.03;102099.31;5016582;28;20034;-75
2021/03/30 03:57:59;;;;;;;19.50;15.30;;;;;;;11.38;69.38;102100.09;5016686;28;20050;-75
2021/03/30 04:01:08;;;;;;;21.40;16.15;;;;;;;11.26;69.72;102098.19;5016113;28;20045;-75
2021/03/30 04:04:28;;;;;;;22.05;16.05;;;;;;;11.20;69.89;102096.75;5017350;28;20046;-76
2021/03/30 04:07:41;;;;;;;19.20;16.35;;;;;;;11.17;70.45;102096.06;5004886;28;20397;-82
2021/03/30 04:10:50;;;;;;;21.88;16.45;;;;;;;11.15;70.36;102097.97;5016012;28;20054;-78
2021/03/30 04:13:58;;;;;;;20.75;15.68;;;;;;;11.21;70.21;102098.44;5017077;28;20045;-75
2021/03/30 04:17:02;;;;;;;21.33;17.40;;;;;;;11.20;70.33;102098.56;5016593;28;20042;-80
2021/03/30 04:20:14;;;;;;;24.58;16.20;;;;;;;11.19;70.29;102099.50;5016821;28;20054;-76
2021/03/30 04:23:23;;;;;;;23.55;17.13;;;;;;;11.15;70.37;102100.69;5015860;28;20041;-76
2021/03/30 04:26:28;;;;;;;20.38;15.75;;;;;;;11.24;70.21;102097.41;5014669;28;20053;-77
2021/03/30 04:29:32;;;;;;;33.28;16.35;;;;;;;11.18;70.42;102097.81;5000094;28;20410;-78
2021/03/30 04:32:38;;;;;;;26.90;16.38;;;;;;;11.18;70.36;102103.19;5006181;28;20485;-82
2021/03/30 04:35:42;;;;;;;23.40;16.23;;;;;;;11.23;70.65;102101.06;5014562;28;20045;-85
2021/03/30 04:38:47;;;;;;;27.50;15.90;;;;;;;11.24;70.56;102106.34;4996921;28;20050;-81
2021/03/30 04:41:51;;;;;;;22.40;15.48;;;;;;;11.27;70.25;102110.66;4996698;28;20042;-79
2021/03/30 04:44:56;;;;;;;25.65;15.80;;;;;;;11.23;70.65;102109.13;4996691;28;20047;-75
2021/03/30 04:48:00;;;;;;;22.17;16.10;;;;;;;11.28;70.19;102112.41;4995658;28;20046;-83
2021/03/30 04:51:05;;;;;;;18.33;16.30;;;;;;;11.22;70.00;102100.19;5007275;28;20049;-76
2021/03/30 04:54:09;;;;;;;22.10;16.85;;;;;;;11.13;70.86;102108.84;5015593;28;20045;-82
2021/03/30 04:57:13;;;;;;;22.52;16.65;;;;;;;11.04;71.27;102098.66;5015442;28;20050;-78
2021/03/30 05:00:18;;;;;;;21.23;16.23;;;;;;;10.91;71.72;102101.22;5016236;28;20046;-78
2021/03/30 05:03:23;;;;;;;29.85;18.65;;;;;;;10.78;72.09;102110.13;5015887;28;20046;-84
2021/03/30 05:06:28;;;;;;;20.60;17.88;;;;;;;10.83;72.20;102114.28;5016224;28;20462;-78
2021/03/30 05:09:32;;;;;;;22.08;17.55;;;;;;;10.91;72.14;102111.13;5015762;28;20050;-74
2021/03/30 05:12:37;;;;;;;27.08;19.48;;;;;;;10.84;71.95;102105.25;5015847;28;20389;-75
2021/03/30 05:15:41;;;;;;;115.93;90.25;;;;;;;10.95;71.58;102108.16;5015620;28;20038;-75
2021/03/30 05:18:45;;;;;;;58.40;38.67;;;;;;;11.00;71.56;102111.41;5015258;28;20049;-82
2021/03/30 05:21:49;;;;;;;26.83;17.38;;;;;;;11.08;70.51;102108.25;5015357;28;20038;-76
2021/03/30 05:24:54;;;;;;;26.67;16.38;;;;;;;11.17;70.06;102112.19;5015979;28;20046;-84
2021/03/30 05:27:58;;;;;;;30.85;16.40;;;;;;;11.21;69.85;102109.22;5015616;28;20050;-73
2021/03/30 05:31:02;;;;;;;25.08;15.80;;;;;;;11.42;69.03;102112.38;5014396;28;20045;-76
2021/03/30 05:34:07;;;;;;;25.75;15.32;;;;;;;11.63;68.34;102116.38;5015284;28;20045;-75
2021/03/30 05:37:11;;;;;;;23.33;15.10;;;;;;;11.83;67.63;102118.69;5015236;28;20381;-77
2021/03/30 05:40:17;;;;;;;24.98;16.30;;;;;;;11.99;67.07;102116.75;5015619;28;20469;-76
2021/03/30 05:43:22;;;;;;;23.67;15.15;;;;;;;12.09;66.09;102117.88;5015221;28;20473;-83
2021/03/30 05:46:27;;;;;;;24.27;13.98;;;;;;;12.28;66.13;102126.44;5005181;28;20045;-76
2021/03/30 05:49:31;;;;;;;18.83;14.52;;;;;;;12.38;64.94;102118.59;5007684;28;20058;-75
2021/03/30 05:56:03;;;;;;;20.20;15.23;;;;;;;12.57;64.56;102128.97;5014269;28;20046;-75
2021/03/30 05:59:11;;;;;;;18.75;13.40;;;;;;;12.78;64.14;102131.09;5013222;28;20057;-75
2021/03/30 06:02:27;;;;;;;19.42;13.70;;;;;;;13.01;63.49;102133.03;5004967;28;20054;-76
2021/03/30 06:05:33;;;;;;;20.92;13.70;;;;;;;13.13;62.87;102134.06;5012916;28;20489;-75
2021/03/30 06:08:38;;;;;;;27.58;13.75;;;;;;;13.29;62.07;102136.53;5013298;28;20053;-76
2021/03/30 06:11:42;;;;;;;20.77;13.85;;;;;;;13.27;62.41;102139.34;5014483;28;20038;-76
2021/03/30 06:14:48;;;;;;;25.90;13.35;;;;;;;13.38;62.01;102142.13;5013641;28;20042;-74
2021/03/30 06:17:53;;;;;;;28.20;14.27;;;;;;;13.78;61.02;102150.94;5013397;28;20034;-77
2021/03/30 06:21:14;;;;;;;17.98;13.00;;;;;;;13.97;60.03;102153.16;5010806;28;20485;-74
2021/03/30 06:24:22;;;;;;;21.52;12.98;;;;;;;14.10;60.16;102156.66;5013231;28;20039;-74
2021/03/30 06:27:29;;;;;;;25.52;13.68;;;;;;;14.38;59.56;102156.38;5013166;28;20046;-74
2021/03/30 06:30:34;;;;;;;29.83;13.18;;;;;;;14.49;58.70;102153.75;5012926;28;20046;-75
2021/03/30 06:33:57;;;;;;;26.33;13.25;;;;;;;14.61;58.83;102160.06;5013922;28;20041;-74
2021/03/30 06:37:21;;;;;;;22.85;13.15;;;;;;;14.81;58.56;102159.41;5006779;28;20045;-74
2021/03/30 06:40:34;;;;;;;26.58;12.45;;;;;;;15.57;56.06;102159.69;5024422;28;20038;-74
2021/03/30 06:47:12;;;;;;;33.17;12.32;;;;;;;15.65;56.25;102161.78;5013972;28;20057;-74
2021/03/30 06:50:20;;;;;;;31.02;13.40;;;;;;;15.77;54.87;102164.38;5012584;28;20038;-74
2021/03/30 06:53:32;;;;;;;26.05;13.38;;;;;;;16.02;54.84;102158.66;5003336;28;20042;-74
2021/03/30 06:56:54;;;;;;;33.05;13.35;;;;;;;16.34;53.65;102168.69;4994393;28;20038;-74
2021/03/30 06:59:58;;;;;;;27.75;15.32;;;;;;;16.60;53.16;102164.69;5001499;28;20488;-73
2021/03/30 07:03:06;;;;;;;26.70;13.75;;;;;;;16.85;52.75;102162.47;5003888;28;20042;-75
2021/03/30 07:06:11;;;;;;;28.67;14.13;;;;;;;16.94;53.61;102155.41;5008744;28;20042;-74
2021/03/30 07:09:16;;;;;;;20.35;13.32;;;;;;;17.18;53.79;102166.88;5012780;28;20050;-73
2021/03/30 07:12:26;;;;;;;21.92;13.20;;;;;;;17.66;52.16;102158.13;5016975;28;20046;-74
2021/03/30 07:15:30;;;;;;;20.30;12.15;;;;;;;17.98;51.66;102156.97;5016395;28;20405;-74
2021/03/30 07:18:39;;;;;;;21.08;11.77;;;;;;;18.25;51.42;102159.03;5017788;28;20041;-74
2021/03/30 07:21:53;;;;;;;17.40;12.80;;;;;;;18.91;49.95;102162.84;5017075;28;20042;-77
2021/03/30 07:25:05;;;;;;;20.40;13.15;;;;;;;19.73;47.56;102161.22;5016575;28;20393;-74
2021/03/30 07:28:17;;;;;;;17.52;13.65;;;;;;;20.96;45.20;102154.25;5017969;28;20485;-77
2021/03/30 07:31:52;;;;;;;13.52;11.32;;;;;;;23.72;38.39;102156.59;5017153;28;20046;-74
2021/03/30 07:35:10;;;;;;;16.40;11.43;;;;;;;28.31;30.27;102144.41;5017145;28;20045;-79
2021/03/30 07:38:20;;;;;;;14.38;10.32;;;;;;;32.79;24.09;102140.56;5016489;28;20049;-76
2021/03/30 07:41:25;;;;;;;11.73;9.95;;;;;;;35.70;20.67;102134.94;5004391;28;20046;-77
2021/03/30 07:44:30;;;;;;;16.30;9.23;;;;;;;37.69;18.89;102133.66;4997342;28;20053;-77
2021/03/30 07:47:36;;;;;;;14.32;8.35;;;;;;;39.97;17.21;102132.84;5012376;28;20497;-75
2021/03/30 07:51:06;;;;;;;12.55;7.88;;;;;;;41.15;16.27;102141.13;5014926;28;20401;-77
2021/03/30 07:54:16;;;;;;;15.55;8.15;;;;;;;42.00;15.77;102144.19;5015081;28;20393;-80
2021/03/30 07:57:56;;;;;;;15.10;8.43;;;;;;;42.28;15.51;102140.44;5016479;28;20398;-79
2021/03/30 08:01:01;;;;;;;10.13;7.20;;;;;;;44.32;14.51;102141.00;5016588;28;20065;-77
2021/03/30 08:04:06;;;;;;;13.40;7.15;;;;;;;43.76;14.51;102144.19;5015624;28;20061;-76
2021/03/30 08:07:11;;;;;;;14.18;6.90;;;;;;;43.91;14.85;102143.03;5002905;28;20052;-75
2021/03/30 08:10:22;;;;;;;12.15;6.68;;;;;;;43.81;14.57;102144.09;5016386;28;20049;-78
2021/03/30 08:13:33;;;;;;;10.30;6.50;;;;;;;44.67;14.84;102145.00;5015842;28;20053;-76
2021/03/30 08:16:39;;;;;;;10.23;6.60;;;;;;;45.11;14.13;102150.72;5016528;28;20049;-74
2021/03/30 08:19:58;;;;;;;13.85;7.10;;;;;;;46.24;13.38;102148.09;5023606;28;20048;-75
2021/03/30 08:23:11;;;;;;;11.55;6.63;;;;;;;46.96;13.29;102136.13;5030598;28;20077;-77
2021/03/30 08:26:18;;;;;;;11.48;6.82;;;;;;;47.34;12.95;102137.03;5016031;28;20057;-77
2021/03/30 08:29:38;;;;;;;12.93;7.22;;;;;;;47.08;13.11;102135.44;5016140;28;20061;-80
2021/03/30 08:32:49;;;;;;;12.93;6.65;;;;;;;45.59;13.94;102139.50;5001471;28;20061;-78
2021/03/30 08:36:19;;;;;;;11.60;6.65;;;;;;;45.64;14.43;102141.38;4996595;28;20057;-77
2021/03/30 08:39:23;;;;;;;8.73;5.63;;;;;;;46.25;14.02;102140.41;5011250;28;20053;-76
2021/03/30 08:42:31;;;;;;;9.48;5.80;;;;;;;46.56;12.70;102137.44;5002191;28;20053;-79
2021/03/30 08:46:05;;;;;;;11.65;6.47;;;;;;;46.35;13.46;102146.63;5015606;28;20065;-74
2021/03/30 08:49:23;;;;;;;8.25;6.25;;;;;;;45.98;13.43;102147.19;4976406;28;20054;-80
2021/03/30 08:52:30;;;;;;;9.63;7.18;;;;;;;45.40;14.25;102143.75;4976705;28;20119;-80
2021/03/30 08:55:40;;;;;;;15.65;8.65;;;;;;;46.72;13.18;102145.16;4975583;28;20066;-77
2021/03/30 08:58:49;;;;;;;9.23;7.22;;;;;;;45.81;13.90;102142.28;4975835;28;20054;-76
2021/03/30 09:01:57;;;;;;;11.40;7.85;;;;;;;45.50;14.30;102138.63;4962084;28;20054;-78
2021/03/30 09:05:01;;;;;;;13.20;9.93;;;;;;;42.92;15.35;102138.94;4976151;28;20058;-77
2021/03/30 09:08:11;;;;;;;13.38;8.77;;;;;;;43.87;15.35;102133.50;4976401;28;20066;-79
2021/03/30 09:11:17;;;;;;;14.40;9.48;;;;;;;42.24;15.99;102135.72;4976054;28;20061;-80
2021/03/30 09:14:22;;;;;;;20.60;13.57;;;;;;;37.09;19.43;102141.59;4976107;28;20407;-76
2021/03/30 09:17:28;;;;;;;21.90;13.65;;;;;;;32.31;24.39;102136.97;4976450;28;20406;-78
2021/03/30 09:20:34;;;;;;;19.75;13.70;;;;;;;30.74;26.80;102136.59;4973288;28;20051;-76
2021/03/30 09:23:41;;;;;;;19.15;15.27;;;;;;;28.39;29.47;102132.34;4938916;29;20043;-75
2021/03/30 09:26:49;;;;;;;16.55;13.75;;;;;;;27.96;31.00;102126.19;4971612;28;20050;-75
2021/03/30 09:29:57;;;;;;;20.35;14.88;;;;;;;27.40;31.38;102132.88;4975559;28;20047;-77
2021/03/30 09:33:03;;;;;;;18.65;16.70;;;;;;;26.73;32.44;102124.19;4974368;28;20050;-77
2021/03/30 09:36:12;;;;;;;25.45;16.23;;;;;;;25.77;34.22;102127.28;4964243;28;20038;-76
2021/03/30 09:39:21;;;;;;;21.30;17.38;;;;;;;25.30;35.21;102130.34;4971616;28;20050;-75
2021/03/30 09:42:26;;;;;;;19.73;16.15;;;;;;;25.55;35.15;102118.09;4959026;28;20047;-76
2021/03/30 09:45:32;;;;;;;24.95;16.73;;;;;;;25.07;34.63;102124.91;4965410;28;20399;-75
2021/03/30 09:48:37;;;;;;;23.60;16.90;;;;;;;24.91;35.44;102135.19;5010653;28;20049;-76
2021/03/30 09:51:43;;;;;;;28.80;16.63;;;;;;;25.15;35.85;102116.59;5005151;28;20447;-76
2021/03/30 09:54:47;;;;;;;23.55;16.25;;;;;;;25.23;35.91;102107.41;5022107;28;20492;-79
2021/03/30 09:58:18;;;;;;;21.35;18.05;;;;;;;25.10;36.19;102113.53;5012539;28;20047;-75
2021/03/30 10:01:24;;;;;;;20.35;15.32;;;;;;;24.91;36.22;102119.53;5013531;28;20397;-76
2021/03/30 10:04:33;;;;;;;22.08;14.57;;;;;;;25.01;36.25;102117.38;5014075;28;20042;-74
2021/03/30 10:07:40;;;;;;;23.17;14.98;;;;;;;24.91;36.23;102114.03;4998605;28;20029;-75
2021/03/30 10:10:50;;;;;;;27.33;17.05;;;;;;;24.00;37.43;102112.25;5031363;28;20045;-77
2021/03/30 10:13:54;;;;;;;23.23;17.20;;;;;;;23.97;38.13;102104.38;5014180;28;20489;-76
2021/03/30 10:16:59;;;;;;;28.00;18.65;;;;;;;23.75;38.79;102106.03;5011834;28;20042;-78
2021/03/30 10:20:03;;;;;;;24.98;16.67;;;;;;;23.78;38.68;102097.44;5012487;28;20042;-76
2021/03/30 10:23:16;;;;;;;26.35;18.00;;;;;;;23.44;38.99;102096.88;5013900;28;20050;-78
2021/03/30 10:26:25;;;;;;;24.13;19.20;;;;;;;23.01;39.84;102098.97;5014977;28;20093;-74
2021/03/30 10:29:31;;;;;;;25.05;17.33;;;;;;;23.15;39.21;102091.97;5033340;28;20045;-76
2021/03/30 10:32:53;;;;;;;21.90;17.33;;;;;;;23.36;39.38;102091.41;5031766;28;20046;-76
2021/03/30 10:35:58;;;;;;;26.13;18.30;;;;;;;22.78;40.62;102089.78;5022412;28;20041;-74
2021/03/30 10:39:09;;;;;;;27.85;17.00;;;;;;;23.00;40.49;102082.72;5012733;28;20050;-76
2021/03/30 10:42:16;;;;;;;22.55;17.52;;;;;;;23.15;40.58;102081.84;5011703;28;20046;-75
2021/03/30 10:45:28;;;;;;;27.00;18.00;;;;;;;23.06;40.53;102068.34;5010958;28;20038;-78
2021/03/30 10:48:52;;;;;;;28.00;18.92;;;;;;;22.78;41.39;102069.75;5013388;28;20057;-77
2021/03/30 10:51:57;;;;;;;30.42;20.00;;;;;;;22.47;41.14;102073.13;5013711;28;20050;-75
2021/03/30 10:55:16;;;;;;;24.20;18.85;;;;;;;22.67;40.49;102060.00;5013609;28;20054;-75
2021/03/30 10:58:20;;;;;;;25.70;19.80;;;;;;;22.71;40.77;102058.66;5012475;28;20513;-75
2021/03/30 11:01:24;;;;;;;26.23;19.92;;;;;;;22.49;41.03;102054.66;5013697;28;20046;-77
2021/03/30 11:04:29;;;;;;;24.95;20.25;;;;;;;22.42;41.13;102052.75;5012873;28;20049;-75
2021/03/30 11:07:33;;;;;;;25.85;19.48;;;;;;;22.54;41.41;102030.38;5013173;28;20042;-75
2021/03/30 11:10:39;;;;;;;24.45;21.73;;;;;;;22.47;42.07;102028.47;5012912;28;20042;-78
2021/03/30 11:13:43;;;;;;;27.75;20.70;;;;;;;22.60;41.38;102024.22;5013769;28;20034;-76
2021/03/30 11:17:01;;;;;;;25.77;20.35;;;;;;;22.52;41.22;102026.09;5002975;28;20432;-75
2021/03/30 11:20:08;;;;;;;25.00;21.08;;;;;;;22.36;41.70;102024.22;5013712;28;20473;-79
2021/03/30 11:23:12;;;;;;;30.05;22.75;;;;;;;22.10;42.04;102031.69;5013098;28;20050;-75
2021/03/30 11:26:16;;;;;;;29.58;23.88;;;;;;;22.16;42.09;102022.84;5013083;28;20529;-77
2021/03/30 11:29:29;;;;;;;30.83;22.85;;;;;;;22.38;42.17;102024.03;5013660;28;20050;-79
2021/03/30 11:33:22;;;;;;;28.10;21.63;;;;;;;22.34;42.02;102022.69;5013225;28;20050;-76
2021/03/30 11:36:04;;;;;;;25.40;21.52;;;;;;;22.33;41.96;102015.50;5019840;28;20276;-76
2021/03/30 11:39:08;;;;;;;31.30;22.40;;;;;;;22.37;41.98;102012.25;5014698;28;20038;-80
2021/03/30 11:42:12;;;;;;;28.13;20.88;;;;;;;22.55;41.38;102004.72;5032435;28;20041;-75
2021/03/30 11:45:16;;;;;;;25.42;22.42;;;;;;;22.69;40.93;102010.56;5032823;28;20477;-77
2021/03/30 11:48:21;;;;;;;26.42;21.33;;;;;;;22.74;41.21;102000.78;5022339;28;20050;-76
2021/03/30 11:51:25;;;;;;;29.13;22.23;;;;;;;22.61;41.83;101997.69;5012177;28;20042;-76
2021/03/30 11:54:29;;;;;;;24.20;20.52;;;;;;;22.62;42.32;101986.59;5019195;28;20046;-76
2021/03/30 11:57:33;;;;;;;25.60;22.67;;;;;;;22.41;41.65;101986.25;5023071;28;20037;-80
2021/03/30 12:00:38;;;;;;;26.02;21.38;;;;;;;22.33;42.13;101993.59;5010528;28;20490;-74
2021/03/30 12:03:43;;;;;;;31.58;20.48;;;;;;;22.46;41.61;101980.25;5026007;28;20041;-78
2021/03/30 12:06:48;;;;;;;28.95;23.48;;;;;;;22.37;41.19;101978.53;5022168;28;20037;-78
2021/03/30 12:09:52;;;;;;;30.77;23.48;;;;;;;22.28;41.30;101974.09;5018645;28;20432;-76
2021/03/30 12:12:56;;;;;;;35.58;25.33;;;;;;;22.07;41.52;101977.38;5014574;28;20050;-77
2021/03/30 12:16:01;;;;;;;27.55;23.30;;;;;;;22.10;40.93;101957.84;5024866;28;20037;-76
2021/03/30 12:19:06;;;;;;;31.88;22.48;;;;;;;22.28;41.46;101965.91;5022534;28;20046;-77
2021/03/30 12:22:10;;;;;;;27.98;23.48;;;;;;;22.20;41.92;101955.81;5022866;28;20405;-76
2021/03/30 12:25:14;;;;;;;30.35;23.27;;;;;;;22.25;41.45;101956.16;5024157;28;20046;-76
2021/03/30 12:28:18;;;;;;;33.92;22.77;;;;;;;22.27;41.31;101943.16;5024311;28;20038;-77
2021/03/30 12:31:23;;;;;;;37.78;23.55;;;;;;;22.31;40.89;101935.47;5036691;28;20397;-76
2021/03/30 12:34:27;;;;;;;31.08;22.48;;;;;;;22.10;40.57;101938.72;5024624;28;20050;-77
2021/03/30 12:37:32;;;;;;;34.05;22.30;;;;;;;22.14;39.96;101931.03;5022756;28;20041;-77
2021/03/30 12:40:37;;;;;;;26.63;20.98;;;;;;;22.22;40.17;101931.88;5017666;28;20041;-76
2021/03/30 12:43:41;;;;;;;29.30;21.15;;;;;;;22.24;39.89;101927.09;5024009;28;20404;-77
2021/03/30 12:46:46;;;;;;;30.77;21.48;;;;;;;22.34;39.27;101913.22;5022671;28;20045;-78
2021/03/30 12:49:51;;;;;;;29.55;21.10;;;;;;;22.44;38.93;101909.25;5025505;28;20053;-76
2021/03/30 12:52:55;;;;;;;31.40;19.48;;;;;;;22.58;38.53;101911.31;5025212;28;20042;-76
2021/03/30 12:55:59;;;;;;;29.88;20.80;;;;;;;22.56;39.14;101896.09;5017419;28;20046;-76
2021/03/30 12:59:03;;;;;;;34.53;22.30;;;;;;;22.46;39.54;101896.28;5014739;28;20049;-74
2021/03/30 13:02:10;;;;;;;29.15;21.08;;;;;;;22.35;39.60;101888.44;5015761;28;20054;-74
2021/03/30 13:05:14;;;;;;;29.00;21.83;;;;;;;22.29;39.47;101886.41;5015559;28;20053;-72
2021/03/30 13:08:19;;;;;;;25.52;21.40;;;;;;;22.33;39.75;101881.41;5015210;28;20038;-75
2021/03/30 13:11:24;;;;;;;25.92;21.35;;;;;;;22.38;40.58;101874.41;5015787;28;20482;-73
2021/03/30 13:14:28;;;;;;;28.40;21.70;;;;;;;22.49;40.78;101868.53;5014649;28;20042;-73
2021/03/30 13:17:32;;;;;;;28.92;23.40;;;;;;;22.55;40.83;101865.13;5012889;28;20042;-73
2021/03/30 13:20:36;;;;;;;32.30;23.58;;;;;;;22.55;40.93;101862.38;5015301;28;20041;-72
2021/03/30 13:23:40;;;;;;;28.10;22.58;;;;;;;22.65;41.18;101856.72;5015532;28;20045;-73
2021/03/30 13:26:45;;;;;;;31.92;23.95;;;;;;;22.60;40.94;101851.75;5013464;28;20046;-73
2021/03/30 13:29:48;;;;;;;28.20;21.45;;;;;;;22.62;41.25;101844.25;5014922;28;20046;-72
2021/03/30 13:32:53;;;;;;;27.42;22.10;;;;;;;22.64;41.33;101849.53;5014730;28;20046;-72
2021/03/30 13:36:00;;;;;;;33.30;22.70;;;;;;;22.51;40.81;101846.50;5013944;28;20087;-73
2021/03/30 13:39:05;;;;;;;32.55;24.23;;;;;;;22.48;40.92;101834.00;5014611;28;20054;-73
2021/03/30 13:42:14;;;;;;;26.90;21.70;;;;;;;22.49;41.40;101838.44;5014872;28;20397;-79
2021/03/30 13:45:18;;;;;;;29.75;23.58;;;;;;;22.53;41.25;101828.88;5009231;28;20042;-72
2021/03/30 13:48:22;;;;;;;35.42;23.73;;;;;;;22.49;41.18;101826.66;5014229;28;20478;-73
2021/03/30 13:51:27;;;;;;;33.53;22.30;;;;;;;22.50;40.72;101821.00;5014437;28;20062;-73
2021/03/30 13:54:32;;;;;;;29.48;21.15;;;;;;;22.56;40.77;101820.31;5014797;28;20489;-73
2021/03/30 13:57:37;;;;;;;32.08;21.48;;;;;;;22.70;40.78;101826.09;5013458;28;20046;-73
2021/03/30 14:00:41;;;;;;;29.45;22.75;;;;;;;22.73;40.53;101823.00;5014251;28;20046;-72
2021/03/30 14:03:45;;;;;;;35.25;22.40;;;;;;;22.79;41.00;101814.09;5014446;28;20045;-73
2021/03/30 14:06:51;;;;;;;29.90;23.73;;;;;;;22.64;40.91;101803.84;5014139;28;20046;-73
2021/03/30 14:09:55;;;;;;;32.55;23.23;;;;;;;22.64;41.33;101801.13;5014178;28;20049;-73
2021/03/30 14:16:15;;;;;;;28.98;24.80;;;;;;;22.59;40.50;101797.19;5013795;28;20054;-72
2021/03/30 14:19:24;;;;;;;32.90;24.38;;;;;;;22.58;40.93;101785.41;5013603;28;20050;-75
2021/03/30 14:22:34;;;;;;;31.00;22.63;;;;;;;22.71;40.84;101779.38;5013885;28;20405;-72
2021/03/30 14:25:49;;;;;;;29.55;23.40;;;;;;;22.74;40.33;101770.78;5014084;28;20042;-73